Test XHTML 1.0 Strict Page for WU-History Testing
Histórico de la Estación METEOCORUÑA
Diario Datos del Marzo 14, 2018 Unidades:  Ambos    Inglés   Metrico
« Prev Dia
Sig Dia »
Diario Semanal Mensual Anual Rango
  Max: Min: Media:
Temp: TemperatureC °F /  -17.8 °C 8.7 °F /  -12.9 °C 12.4 °F /  -10.9 °C
Rocío: DewpointC °F /  -17.8 °C -73.3 °F /  -58.5 °C 6.8 °F /  -14 °C
Humedad: Humidity % 72 % 82 %
Vel. viento: WindSpeedKMH mph /  0 km/h - 31.8 mph /  51.2 km/h
Racha: WindSpeedGustKMH mph /  0 km/h - -
Viento:- - SW
Presión: PressurehPa in /  0 hPa -3386.0 in /  -114650 hPa -
Lluvia: 0.0 in /  0 mm    
Historical Graphs
 
 
Busqueda de Marzo 14, 2018
Hora Temp Rocío Presión Viento Vel. viento Racha Humedad Ratio lluvia (/hora) Radiación
TemperatureC °F /  -17.8 °C DewpointC °F /  -17.8 °C PressurehPa in /  0 hPa Calm     Humidity % HourlyPrecipMM in /  0 mm SolarRadiationWatts/m^2 W/m2
00:04 13.6 °F /  -10.2 °C 8.8 °F /  -12.9 °C 1007.0 in /  34097 hPa SW 44.4 mph /  71.5 km/h 44.4 mph /  71.5 km/h 73 % 0.0 in /  0 mm 0.0 W/m2
00:09 13.7 °F /  -10.2 °C 8.9 °F /  -12.8 °C 1006.7 in /  34086.9 hPa SSW 53.1 mph /  85.5 km/h 53.1 mph /  85.5 km/h 73 % 0.0 in /  0 mm 0.0 W/m2
00:14 13.8 °F /  -10.1 °C 9.0 °F /  -12.8 °C 1007.0 in /  34097 hPa South 68.5 mph /  110.2 km/h 68.5 mph /  110.2 km/h 73 % 0.0 in /  0 mm 0.0 W/m2
00:19 13.8 °F /  -10.1 °C 8.9 °F /  -12.8 °C 1006.3 in /  34073.3 hPa SSE 35.4 mph /  57 km/h 35.4 mph /  57 km/h 72 % 0.0 in /  0 mm 0.0 W/m2
00:24 13.8 °F /  -10.1 °C 9.1 °F /  -12.7 °C 1006.7 in /  34086.9 hPa SW 50.0 mph /  80.5 km/h 50.0 mph /  80.5 km/h 73 % 0.0 in /  0 mm 0.0 W/m2
00:29 13.9 °F /  -10.1 °C 9.1 °F /  -12.7 °C 1006.0 in /  34063.2 hPa ESE 48.1 mph /  77.4 km/h 48.1 mph /  77.4 km/h 73 % 0.0 in /  0 mm 0.0 W/m2
00:34 13.8 °F /  -10.1 °C 9.1 °F /  -12.7 °C 1006.3 in /  34073.3 hPa SW 44.4 mph /  71.5 km/h 44.4 mph /  71.5 km/h 73 % 0.0 in /  0 mm 0.0 W/m2
00:39 13.8 °F /  -10.1 °C 9.1 °F /  -12.7 °C 1006.7 in /  34086.9 hPa South 24.1 mph /  38.8 km/h 51.5 mph /  82.9 km/h 73 % 0.0 in /  0 mm 0 W/m2
00:44 13.8 °F /  -10.1 °C 9.2 °F /  -12.7 °C 1006.3 in /  34073.3 hPa SSW 22.5 mph /  36.2 km/h 32.2 mph /  51.8 km/h 74 % 0.0 in /  0 mm 0 W/m2
00:49 13.8 °F /  -10.1 °C 9.3 °F /  -12.6 °C 1006.0 in /  34063.2 hPa SW 38.6 mph /  62.1 km/h 38.6 mph /  62.1 km/h 74 % 0.0 in /  0 mm 0.0 W/m2
00:54 13.8 °F /  -10.1 °C 9.3 °F /  -12.6 °C 1005.6 in /  34049.6 hPa SSE 24.1 mph /  38.8 km/h 24.1 mph /  38.8 km/h 74 % 0.0 in /  0 mm 0.0 W/m2
00:59 13.8 °F /  -10.1 °C 9.2 °F /  -12.7 °C 1005.6 in /  34049.6 hPa SW 51.5 mph /  82.9 km/h 51.5 mph /  82.9 km/h 74 % 0.0 in /  0 mm 0.0 W/m2
01:04 13.9 °F /  -10.1 °C 9.3 °F /  -12.6 °C 1005.3 in /  34039.5 hPa SSE 42.6 mph /  68.6 km/h 42.6 mph /  68.6 km/h 74 % 0.0 in /  0 mm 0.0 W/m2
01:09 13.9 °F /  -10.1 °C 9.4 °F /  -12.6 °C 1005.3 in /  34039.5 hPa SE 61.1 mph /  98.3 km/h 61.1 mph /  98.3 km/h 74 % 0.0 in /  0 mm 0.0 W/m2
01:14 13.9 °F /  -10.1 °C 9.4 °F /  -12.6 °C 1005.0 in /  34029.3 hPa SSW 48.1 mph /  77.4 km/h 48.1 mph /  77.4 km/h 74 % 0.0 in /  0 mm 0.0 W/m2
01:19 13.9 °F /  -10.1 °C 9.6 °F /  -12.4 °C 1005.3 in /  34039.5 hPa SSW 42.6 mph /  68.6 km/h 42.6 mph /  68.6 km/h 75 % 0.0 in /  0 mm 0.0 W/m2
01:24 13.8 °F /  -10.1 °C 9.4 °F /  -12.6 °C 1004.6 in /  34015.8 hPa South 35.4 mph /  57 km/h 35.4 mph /  57 km/h 75 % 0.0 in /  0 mm 0.0 W/m2
01:29 13.7 °F /  -10.2 °C 9.6 °F /  -12.4 °C 1004.6 in /  34015.8 hPa SSE 32.2 mph /  51.8 km/h 32.2 mph /  51.8 km/h 76 % 0.0 in /  0 mm 0.0 W/m2
01:34 13.7 °F /  -10.2 °C 9.6 °F /  -12.4 °C 1005.0 in /  34029.3 hPa SSE 42.6 mph /  68.6 km/h 42.6 mph /  68.6 km/h 76 % 0.0 in /  0 mm 0.0 W/m2
01:39 13.7 °F /  -10.2 °C 9.6 °F /  -12.4 °C 1004.6 in /  34015.8 hPa WSW 38.9 mph /  62.6 km/h 38.9 mph /  62.6 km/h 76 % 0.0 in /  0 mm 0.0 W/m2
01:44 13.6 °F /  -10.2 °C 9.7 °F /  -12.4 °C 1004.3 in /  34005.6 hPa South 44.4 mph /  71.5 km/h 44.4 mph /  71.5 km/h 77 % 0.0 in /  0 mm 0.0 W/m2
01:49 13.6 °F /  -10.2 °C 9.6 °F /  -12.4 °C 1003.9 in /  33992.1 hPa SSW 42.6 mph /  68.6 km/h 42.6 mph /  68.6 km/h 77 % 0.0 in /  0 mm 0.0 W/m2
01:54 13.4 °F /  -10.3 °C 9.7 °F /  -12.4 °C 1003.9 in /  33992.1 hPa SSE 38.6 mph /  62.1 km/h 38.6 mph /  62.1 km/h 78 % 0.0 in /  0 mm 0.0 W/m2
01:59 13.4 °F /  -10.3 °C 9.7 °F /  -12.4 °C 1003.9 in /  33992.1 hPa North 55.5 mph /  89.3 km/h 55.5 mph /  89.3 km/h 78 % 0.0 in /  0 mm 0.0 W/m2
02:04 13.4 °F /  -10.3 °C 9.9 °F /  -12.3 °C 1003.9 in /  33992.1 hPa South 48.3 mph /  77.7 km/h 48.3 mph /  77.7 km/h 79 % 0.0 in /  0 mm 0.0 W/m2
02:09 13.3 °F /  -10.4 °C 9.8 °F /  -12.3 °C 1003.6 in /  33981.9 hPa West 49.9 mph /  80.3 km/h 49.9 mph /  80.3 km/h 79 % 0.0 in /  0 mm 0.0 W/m2
02:14 13.2 °F /  -10.4 °C 9.7 °F /  -12.4 °C 1003.6 in /  33981.9 hPa SW 59.2 mph /  95.3 km/h 59.2 mph /  95.3 km/h 79 % 0.0 in /  0 mm 0.0 W/m2
02:19 13.1 °F /  -10.5 °C 9.7 °F /  -12.4 °C 1003.3 in /  33971.7 hPa SSW 46.7 mph /  75.2 km/h 46.7 mph /  75.2 km/h 80 % 0.0 in /  0 mm 0.0 W/m2
02:24 12.8 °F /  -10.7 °C 9.6 °F /  -12.4 °C 1002.9 in /  33958.2 hPa South 46.7 mph /  75.2 km/h 46.7 mph /  75.2 km/h 81 % 0.0 in /  0 mm 0.0 W/m2
02:29 12.7 °F /  -10.7 °C 9.7 °F /  -12.4 °C 1002.9 in /  33958.2 hPa SSW 40.2 mph /  64.7 km/h 40.2 mph /  64.7 km/h 82 % 0.0 in /  0 mm 0.0 W/m2
02:34 12.7 °F /  -10.7 °C 9.8 °F /  -12.3 °C 1002.6 in /  33948 hPa SSE 40.7 mph /  65.5 km/h 40.7 mph /  65.5 km/h 83 % 0.0 in /  0 mm 0.0 W/m2
02:39 12.7 °F /  -10.7 °C 9.8 °F /  -12.3 °C 1002.6 in /  33948 hPa SSW 44.4 mph /  71.5 km/h 44.4 mph /  71.5 km/h 83 % 0.0 in /  0 mm 0.0 W/m2
02:44 12.6 °F /  -10.8 °C 10.0 °F /  -12.2 °C 1002.3 in /  33937.9 hPa SSW 38.6 mph /  62.1 km/h 38.6 mph /  62.1 km/h 84 % 0.0 in /  0 mm 0.0 W/m2
02:46 12.7 °F /  -10.7 °C 10.2 °F /  -12.1 °C 1002.9 in /  33958.2 hPa South 24.1 mph /  38.8 km/h 54.7 mph /  88 km/h 85 % 0.0 in /  0 mm 0 W/m2
02:51 12.7 °F /  -10.7 °C 10.2 °F /  -12.1 °C 1002.9 in /  33958.2 hPa South 25.7 mph /  41.4 km/h 43.4 mph /  69.8 km/h 85 % 0.0 in /  0 mm 0 W/m2
02:56 12.7 °F /  -10.7 °C 10.2 °F /  -12.1 °C 1002.3 in /  33937.9 hPa South 20.9 mph /  33.6 km/h 46.7 mph /  75.2 km/h 85 % 0.0 in /  0 mm 0 W/m2
03:01 12.7 °F /  -10.7 °C 10.2 °F /  -12.1 °C 1002.6 in /  33948 hPa South 16.1 mph /  25.9 km/h 33.8 mph /  54.4 km/h 85 % 0.0 in /  0 mm 0 W/m2
03:06 12.7 °F /  -10.7 °C 10.2 °F /  -12.1 °C 1001.6 in /  33914.2 hPa North 31.5 mph /  50.7 km/h 31.5 mph /  50.7 km/h 85 % 0.0 in /  0 mm 0.0 W/m2
03:11 12.7 °F /  -10.7 °C 10.2 °F /  -12.1 °C 1001.6 in /  33914.2 hPa SSE 32.2 mph /  51.8 km/h 32.2 mph /  51.8 km/h 85 % 0.0 in /  0 mm 0.0 W/m2
03:16 12.8 °F /  -10.7 °C 10.5 °F /  -11.9 °C 1001.6 in /  33914.2 hPa South 53.7 mph /  86.4 km/h 53.7 mph /  86.4 km/h 86 % 0.0 in /  0 mm 0.0 W/m2
03:21 12.8 °F /  -10.7 °C 10.5 °F /  -11.9 °C 1001.2 in /  33900.6 hPa South 20.9 mph /  33.6 km/h 33.8 mph /  54.4 km/h 86 % 0.0 in /  0 mm 0 W/m2
03:26 12.8 °F /  -10.7 °C 10.5 °F /  -11.9 °C 1001.2 in /  33900.6 hPa WSW 40.7 mph /  65.5 km/h 40.7 mph /  65.5 km/h 86 % 0.0 in /  0 mm 0.0 W/m2
03:31 12.7 °F /  -10.7 °C 10.6 °F /  -11.9 °C 1001.2 in /  33900.6 hPa SSE 43.4 mph /  69.8 km/h 43.4 mph /  69.8 km/h 87 % 0.0 in /  0 mm 0.0 W/m2
03:36 12.7 °F /  -10.7 °C 10.6 °F /  -11.9 °C 1001.2 in /  33900.6 hPa South 41.8 mph /  67.3 km/h 41.8 mph /  67.3 km/h 87 % 0.0 in /  0 mm 0.0 W/m2
03:41 12.6 °F /  -10.8 °C 10.7 °F /  -11.8 °C 1001.2 in /  33900.6 hPa South 24.1 mph /  38.8 km/h 38.6 mph /  62.1 km/h 88 % 0.0 in /  0 mm 0 W/m2
03:46 12.7 °F /  -10.7 °C 10.7 °F /  -11.8 °C 1000.9 in /  33890.5 hPa SSW 31.5 mph /  50.7 km/h 31.5 mph /  50.7 km/h 88 % 0.0 in /  0 mm 0.0 W/m2
03:51 12.8 °F /  -10.7 °C 10.8 °F /  -11.8 °C 1000.9 in /  33890.5 hPa South 20.9 mph /  33.6 km/h 41.8 mph /  67.3 km/h 88 % 0.0 in /  0 mm 0 W/m2
03:56 12.9 °F /  -10.6 °C 10.9 °F /  -11.7 °C 1000.2 in /  33866.8 hPa SE 35.2 mph /  56.6 km/h 35.2 mph /  56.6 km/h 88 % 0.0 in /  0 mm 0.0 W/m2
04:01 12.9 °F /  -10.6 °C 11.0 °F /  -11.7 °C 1000.2 in /  33866.8 hPa SSE 37.0 mph /  59.5 km/h 37.0 mph /  59.5 km/h 88 % 0.0 in /  0 mm 0.0 W/m2
04:06 13.0 °F /  -10.6 °C 11.1 °F /  -11.6 °C 999.9 in /  33856.6 hPa South 35.4 mph /  57 km/h 35.4 mph /  57 km/h 88 % 0.0 in /  0 mm 0.0 W/m2
04:11 13.1 °F /  -10.5 °C 11.1 °F /  -11.6 °C 999.9 in /  33856.6 hPa SSE 35.2 mph /  56.6 km/h 35.2 mph /  56.6 km/h 88 % 0.0 in /  0 mm 0.0 W/m2
04:16 13.2 °F /  -10.4 °C 11.2 °F /  -11.6 °C 999.9 in /  33856.6 hPa South 35.2 mph /  56.6 km/h 35.2 mph /  56.6 km/h 88 % 0.0 in /  0 mm 0.0 W/m2
04:21 13.3 °F /  -10.4 °C 11.3 °F /  -11.5 °C 999.9 in /  33856.6 hPa SW 33.8 mph /  54.4 km/h 33.8 mph /  54.4 km/h 88 % 0.0 in /  0 mm 0.0 W/m2
04:26 13.4 °F /  -10.3 °C 11.4 °F /  -11.4 °C 999.5 in /  33843.1 hPa South 27.4 mph /  44.1 km/h 27.4 mph /  44.1 km/h 88 % 0.0 in /  0 mm 0.0 W/m2
04:31 13.4 °F /  -10.3 °C 11.6 °F /  -11.3 °C 999.2 in /  33832.9 hPa South 25.9 mph /  41.7 km/h 25.9 mph /  41.7 km/h 89 % 0.0 in /  0 mm 0.0 W/m2
04:36 13.3 °F /  -10.4 °C 11.6 °F /  -11.3 °C 999.2 in /  33832.9 hPa SW 20.4 mph /  32.8 km/h 20.4 mph /  32.8 km/h 89 % 0.0 in /  0 mm 0.0 W/m2
04:41 13.3 °F /  -10.4 °C 11.5 °F /  -11.4 °C 999.5 in /  33843.1 hPa South 11.3 mph /  18.2 km/h 22.5 mph /  36.2 km/h 89 % 0.0 in /  0 mm 0 W/m2
04:46 13.3 °F /  -10.4 °C 11.5 °F /  -11.4 °C 999.2 in /  33832.9 hPa SSW 18.5 mph /  29.8 km/h 18.5 mph /  29.8 km/h 89 % 0.0 in /  0 mm 0.0 W/m2
04:51 13.4 °F /  -10.3 °C 11.6 °F /  -11.3 °C 998.9 in /  33822.8 hPa SSW 29.0 mph /  46.7 km/h 29.0 mph /  46.7 km/h 89 % 0.0 in /  0 mm 0.0 W/m2
04:56 13.5 °F /  -10.3 °C 11.7 °F /  -11.3 °C 998.9 in /  33822.8 hPa South 12.9 mph /  20.8 km/h 24.1 mph /  38.8 km/h 89 % 0.0 in /  0 mm 0 W/m2
05:01 13.7 °F /  -10.2 °C 11.9 °F /  -11.2 °C 999.2 in /  33832.9 hPa SSW 12.9 mph /  20.8 km/h 40.2 mph /  64.7 km/h 89 % 0.0 in /  0 mm 0 W/m2
05:11 14.8 °F /  -9.6 °C 12.1 °F /  -11.1 °C 998.2 in /  33799.1 hPa SSW 51.8 mph /  83.4 km/h 51.8 mph /  83.4 km/h 84 % 0.0 in /  0 mm 0.0 W/m2
05:16 14.9 °F /  -9.5 °C 11.8 °F /  -11.2 °C 998.5 in /  33809.2 hPa SSW 59.2 mph /  95.3 km/h 59.2 mph /  95.3 km/h 82 % 0.0 in /  0 mm 0.0 W/m2
05:21 15.0 °F /  -9.4 °C 11.8 °F /  -11.2 °C 998.2 in /  33799.1 hPa SW 62.9 mph /  101.2 km/h 62.9 mph /  101.2 km/h 81 % 0.0 in /  0 mm 0.0 W/m2
05:26 14.9 °F /  -9.5 °C 11.5 °F /  -11.4 °C 997.9 in /  33788.9 hPa SSW 48.1 mph /  77.4 km/h 48.1 mph /  77.4 km/h 80 % 0.0 in /  0 mm 0.0 W/m2
05:31 15.1 °F /  -9.4 °C 11.6 °F /  -11.3 °C 997.9 in /  33788.9 hPa South 56.3 mph /  90.6 km/h 56.3 mph /  90.6 km/h 80 % 0.0 in /  0 mm 0.0 W/m2
05:36 15.2 °F /  -9.3 °C 11.6 °F /  -11.3 °C 997.9 in /  33788.9 hPa SSW 37.0 mph /  59.5 km/h 37.0 mph /  59.5 km/h 79 % 0.0 in /  0 mm 0.0 W/m2
05:41 15.2 °F /  -9.3 °C 11.3 °F /  -11.5 °C 997.9 in /  33788.9 hPa SW 53.1 mph /  85.5 km/h 53.1 mph /  85.5 km/h 78 % 0.0 in /  0 mm 0.0 W/m2
05:46 15.2 °F /  -9.3 °C 11.2 °F /  -11.6 °C 997.9 in /  33788.9 hPa SW 64.4 mph /  103.6 km/h 64.4 mph /  103.6 km/h 77 % 0.0 in /  0 mm 0.0 W/m2
05:51 15.3 °F /  -9.3 °C 11.1 °F /  -11.6 °C 997.9 in /  33788.9 hPa WSW 83.3 mph /  134.1 km/h 83.3 mph /  134.1 km/h 76 % 0.0 in /  0 mm 0.0 W/m2
05:56 15.2 °F /  -9.3 °C 11.0 °F /  -11.7 °C 997.5 in /  33775.4 hPa WSW 57.9 mph /  93.2 km/h 57.9 mph /  93.2 km/h 76 % 0.0 in /  0 mm 0.0 W/m2
06:01 15.2 °F /  -9.3 °C 11.0 °F /  -11.7 °C 997.9 in /  33788.9 hPa WSW 53.7 mph /  86.4 km/h 53.7 mph /  86.4 km/h 76 % 0.0 in /  0 mm 0.0 W/m2
06:06 15.2 °F /  -9.3 °C 10.8 °F /  -11.8 °C 997.2 in /  33765.2 hPa SSE 59.2 mph /  95.3 km/h 59.2 mph /  95.3 km/h 75 % 0.0 in /  0 mm 0.0 W/m2
06:11 15.1 °F /  -9.4 °C 10.7 °F /  -11.8 °C 997.5 in /  33775.4 hPa SW 59.2 mph /  95.3 km/h 59.2 mph /  95.3 km/h 75 % 0.0 in /  0 mm 0.0 W/m2
06:17 14.9 °F /  -9.5 °C 10.7 °F /  -11.8 °C 996.8 in /  33751.6 hPa West 57.9 mph /  93.2 km/h 57.9 mph /  93.2 km/h 76 % 0.0 in /  0 mm 0.0 W/m2
06:22 14.8 °F /  -9.6 °C 10.6 °F /  -11.9 °C 997.5 in /  33775.4 hPa SW 32.2 mph /  51.8 km/h 40.2 mph /  64.7 km/h 76 % 0.0 in /  0 mm 0 W/m2
06:27 14.9 °F /  -9.5 °C 10.7 °F /  -11.8 °C 996.8 in /  33751.6 hPa SW 27.4 mph /  44.1 km/h 56.3 mph /  90.6 km/h 76 % 0.0 in /  0 mm 0 W/m2
06:32 14.9 °F /  -9.5 °C 10.5 °F /  -11.9 °C 996.5 in /  33741.5 hPa SW 25.7 mph /  41.4 km/h 74.0 mph /  119.1 km/h 75 % 0.0 in /  0 mm 0 W/m2
06:37 14.8 °F /  -9.6 °C 10.4 °F /  -12 °C 996.2 in /  33731.3 hPa SW 24.1 mph /  38.8 km/h 56.3 mph /  90.6 km/h 75 % 0.0 in /  0 mm 0 W/m2
06:42 14.9 °F /  -9.5 °C 10.5 °F /  -11.9 °C 996.2 in /  33731.3 hPa SW 27.4 mph /  44.1 km/h 56.3 mph /  90.6 km/h 75 % 0.0 in /  0 mm 0 W/m2
06:47 14.9 °F /  -9.5 °C 10.5 °F /  -11.9 °C 996.2 in /  33731.3 hPa SSW 30.6 mph /  49.2 km/h 43.4 mph /  69.8 km/h 75 % 0.0 in /  0 mm 0 W/m2
06:52 14.8 °F /  -9.6 °C 10.6 °F /  -11.9 °C 996.2 in /  33731.3 hPa SW 27.4 mph /  44.1 km/h 57.9 mph /  93.2 km/h 76 % 0.0 in /  0 mm 0 W/m2
06:57 14.6 °F /  -9.7 °C 10.8 °F /  -11.8 °C 996.2 in /  33731.3 hPa SSW 27.4 mph /  44.1 km/h 49.9 mph /  80.3 km/h 78 % 0.0 in /  0 mm 0 W/m2
07:02 14.4 °F /  -9.8 °C 11.0 °F /  -11.7 °C 995.8 in /  33717.8 hPa SW 30.6 mph /  49.2 km/h 74.0 mph /  119.1 km/h 80 % 0.0 in /  0 mm 0 W/m2
07:07 14.3 °F /  -9.8 °C 10.9 °F /  -11.7 °C 995.8 in /  33717.8 hPa SW 29.0 mph /  46.7 km/h 48.3 mph /  77.7 km/h 80 % 0.0 in /  0 mm 0 W/m2
07:12 14.2 °F /  -9.9 °C 11.0 °F /  -11.7 °C 995.8 in /  33717.8 hPa SW 32.2 mph /  51.8 km/h 51.5 mph /  82.9 km/h 81 % 0.0 in /  0 mm 0 W/m2
07:17 14.3 °F /  -9.8 °C 10.7 °F /  -11.8 °C 996.2 in /  33731.3 hPa SSW 35.4 mph /  57 km/h 70.8 mph /  113.9 km/h 79 % 0.0 in /  0 mm 0 W/m2
07:22 14.3 °F /  -9.8 °C 10.5 °F /  -11.9 °C 995.8 in /  33717.8 hPa SW 38.6 mph /  62.1 km/h 59.5 mph /  95.8 km/h 78 % 0.0 in /  0 mm 0 W/m2
07:27 14.2 °F /  -9.9 °C 10.4 °F /  -12 °C 995.8 in /  33717.8 hPa SW 37.0 mph /  59.5 km/h 70.8 mph /  113.9 km/h 78 % 0.0 in /  0 mm 0 W/m2
07:32 14.1 °F /  -9.9 °C 10.3 °F /  -12.1 °C 995.5 in /  33707.6 hPa WSW 32.2 mph /  51.8 km/h 54.7 mph /  88 km/h 78 % 0.0 in /  0 mm 0 W/m2
07:37 13.9 °F /  -10.1 °C 10.3 °F /  -12.1 °C 995.1 in /  33694.1 hPa SW 29.0 mph /  46.7 km/h 40.2 mph /  64.7 km/h 79 % 0.0 in /  0 mm 0 W/m2
07:42 13.8 °F /  -10.1 °C 10.4 °F /  -12 °C 995.5 in /  33707.6 hPa SW 22.5 mph /  36.2 km/h 54.7 mph /  88 km/h 80 % 0.0 in /  0 mm 0 W/m2
07:47 13.8 °F /  -10.1 °C 10.4 °F /  -12 °C 995.5 in /  33707.6 hPa SW 22.5 mph /  36.2 km/h 86.9 mph /  139.8 km/h 80 % 0.0 in /  0 mm 0 W/m2
07:52 13.9 °F /  -10.1 °C 10.1 °F /  -12.2 °C 995.1 in /  33694.1 hPa SW 37.0 mph /  59.5 km/h 67.6 mph /  108.8 km/h 78 % 0.0 in /  0 mm 0 W/m2
07:57 13.8 °F /  -10.1 °C 10.1 °F /  -12.2 °C 994.8 in /  33683.9 hPa SSW 43.4 mph /  69.8 km/h 51.5 mph /  82.9 km/h 78 % 0.0 in /  0 mm 0 W/m2
08:02 13.9 °F /  -10.1 °C 9.9 °F /  -12.3 °C 994.8 in /  33683.9 hPa SSW 37.0 mph /  59.5 km/h 69.2 mph /  111.4 km/h 77 % 0.0 in /  0 mm 0 W/m2
08:07 13.8 °F /  -10.1 °C 9.8 °F /  -12.3 °C 995.1 in /  33694.1 hPa SW 29.0 mph /  46.7 km/h 64.4 mph /  103.6 km/h 77 % 0.0 in /  0 mm 5 W/m2
08:12 13.9 °F /  -10.1 °C 9.9 °F /  -12.3 °C 994.8 in /  33683.9 hPa SSW 30.6 mph /  49.2 km/h 75.6 mph /  121.7 km/h 77 % 0.0 in /  0 mm 7 W/m2
08:17 13.8 °F /  -10.1 °C 10.1 °F /  -12.2 °C 994.5 in /  33673.8 hPa SSW 38.6 mph /  62.1 km/h 43.4 mph /  69.8 km/h 78 % 0.0 in /  0 mm 9 W/m2
08:22 13.7 °F /  -10.2 °C 10.1 °F /  -12.2 °C 994.5 in /  33673.8 hPa SSW 33.8 mph /  54.4 km/h 49.9 mph /  80.3 km/h 79 % 0.0 in /  0 mm 11 W/m2
08:27 13.6 °F /  -10.2 °C 10.2 °F /  -12.1 °C 994.1 in /  33660.2 hPa SSW 22.5 mph /  36.2 km/h 40.2 mph /  64.7 km/h 80 % 0.0 in /  0 mm 16 W/m2
08:32 13.6 °F /  -10.2 °C 10.4 °F /  -12 °C 994.1 in /  33660.2 hPa SSW 20.9 mph /  33.6 km/h 45.1 mph /  72.6 km/h 81 % 0.0 in /  0 mm 9 W/m2
08:37 13.4 °F /  -10.3 °C 10.4 °F /  -12 °C 994.5 in /  33673.8 hPa South 20.9 mph /  33.6 km/h 41.8 mph /  67.3 km/h 82 % 0.0 in /  0 mm 0 W/m2
08:42 13.3 °F /  -10.4 °C 10.5 °F /  -11.9 °C 993.8 in /  33650.1 hPa SSW 22.5 mph /  36.2 km/h 46.7 mph /  75.2 km/h 83 % 0.0 in /  0 mm 9 W/m2
08:47 13.2 °F /  -10.4 °C 10.4 °F /  -12 °C 993.8 in /  33650.1 hPa South 20.9 mph /  33.6 km/h 38.6 mph /  62.1 km/h 83 % 0.0 in /  0 mm 16 W/m2
08:52 13.1 °F /  -10.5 °C 10.4 °F /  -12 °C 993.8 in /  33650.1 hPa SW 20.9 mph /  33.6 km/h 45.1 mph /  72.6 km/h 84 % 0.0 in /  0 mm 21 W/m2
08:57 13.1 °F /  -10.5 °C 10.4 °F /  -12 °C 993.5 in /  33639.9 hPa SSW 20.9 mph /  33.6 km/h 41.8 mph /  67.3 km/h 84 % 0.0 in /  0 mm 25 W/m2
09:02 13.2 °F /  -10.4 °C 10.6 °F /  -11.9 °C 993.5 in /  33639.9 hPa SSW 22.5 mph /  36.2 km/h 41.8 mph /  67.3 km/h 84 % 0.0 in /  0 mm 32 W/m2
09:07 13.1 °F /  -10.5 °C 10.6 °F /  -11.9 °C 993.5 in /  33639.9 hPa South 20.9 mph /  33.6 km/h 35.4 mph /  57 km/h 85 % 0.0 in /  0 mm 23 W/m2
09:12 13.1 °F /  -10.5 °C 10.6 °F /  -11.9 °C 993.1 in /  33626.4 hPa South 16.1 mph /  25.9 km/h 25.7 mph /  41.4 km/h 85 % 0.0 in /  0 mm 14 W/m2
09:17 13.0 °F /  -10.6 °C 10.7 °F /  -11.8 °C 993.1 in /  33626.4 hPa South 14.5 mph /  23.3 km/h 33.8 mph /  54.4 km/h 86 % 0.0 in /  0 mm 12 W/m2
09:22 12.9 °F /  -10.6 °C 10.8 °F /  -11.8 °C 992.8 in /  33616.2 hPa South 14.5 mph /  23.3 km/h 45.1 mph /  72.6 km/h 87 % 0.0 in /  0 mm 18 W/m2
09:27 13.0 °F /  -10.6 °C 10.9 °F /  -11.7 °C 992.8 in /  33616.2 hPa SSW 19.3 mph /  31.1 km/h 38.6 mph /  62.1 km/h 87 % 0.0 in /  0 mm 18 W/m2
09:32 13.0 °F /  -10.6 °C 10.9 °F /  -11.7 °C 992.8 in /  33616.2 hPa SSW 19.3 mph /  31.1 km/h 38.6 mph /  62.1 km/h 87 % 0.0 in /  0 mm 16 W/m2
09:37 13.1 °F /  -10.5 °C 11.0 °F /  -11.7 °C 992.4 in /  33602.7 hPa SSW 20.9 mph /  33.6 km/h 54.7 mph /  88 km/h 87 % 0.0 in /  0 mm 35 W/m2
09:42 13.1 °F /  -10.5 °C 11.0 °F /  -11.7 °C 992.4 in /  33602.7 hPa SSW 25.7 mph /  41.4 km/h 38.6 mph /  62.1 km/h 87 % 0.0 in /  0 mm 42 W/m2
09:47 13.2 °F /  -10.4 °C 11.1 °F /  -11.6 °C 992.1 in /  33592.5 hPa SW 29.0 mph /  46.7 km/h 41.8 mph /  67.3 km/h 87 % 0.0 in /  0 mm 37 W/m2
09:52 13.2 °F /  -10.4 °C 11.1 °F /  -11.6 °C 992.4 in /  33602.7 hPa SSW 27.4 mph /  44.1 km/h 41.8 mph /  67.3 km/h 87 % 0.0 in /  0 mm 33 W/m2
09:57 13.2 °F /  -10.4 °C 10.9 °F /  -11.7 °C 991.8 in /  33582.3 hPa SSW 25.7 mph /  41.4 km/h 46.7 mph /  75.2 km/h 86 % 0.0 in /  0 mm 30 W/m2
10:02 13.4 °F /  -10.3 °C 11.3 °F /  -11.5 °C 991.8 in /  33582.3 hPa SSW 25.7 mph /  41.4 km/h 56.3 mph /  90.6 km/h 87 % 0.0 in /  0 mm 23 W/m2
10:07 13.6 °F /  -10.2 °C 11.3 °F /  -11.5 °C 991.4 in /  33568.8 hPa SSW 27.4 mph /  44.1 km/h 48.3 mph /  77.7 km/h 86 % 0.0 in /  0 mm 25 W/m2
10:12 13.5 °F /  -10.3 °C 11.0 °F /  -11.7 °C 991.8 in /  33582.3 hPa SSW 30.6 mph /  49.2 km/h 53.1 mph /  85.5 km/h 85 % 0.0 in /  0 mm 21 W/m2
10:17 13.5 °F /  -10.3 °C 11.2 °F /  -11.6 °C 991.4 in /  33568.8 hPa SW 32.2 mph /  51.8 km/h 62.8 mph /  101.1 km/h 86 % 0.0 in /  0 mm 14 W/m2
10:22 13.4 °F /  -10.3 °C 11.1 °F /  -11.6 °C 991.8 in /  33582.3 hPa SW 33.8 mph /  54.4 km/h 53.1 mph /  85.5 km/h 86 % 0.0 in /  0 mm 9 W/m2
10:27 13.3 °F /  -10.4 °C 11.2 °F /  -11.6 °C 992.4 in /  33602.7 hPa SW 30.6 mph /  49.2 km/h 46.7 mph /  75.2 km/h 87 % 0.0 in /  0 mm 11 W/m2
10:32 13.2 °F /  -10.4 °C 11.3 °F /  -11.5 °C 991.8 in /  33582.3 hPa WSW 30.6 mph /  49.2 km/h 56.3 mph /  90.6 km/h 88 % 0.0 in /  0 mm 7 W/m2
10:37 13.1 °F /  -10.5 °C 11.2 °F /  -11.6 °C 992.1 in /  33592.5 hPa WSW 33.8 mph /  54.4 km/h 72.4 mph /  116.5 km/h 88 % 0.0 in /  0 mm 16 W/m2
10:42 13.1 °F /  -10.5 °C 11.2 °F /  -11.6 °C 992.1 in /  33592.5 hPa WSW 38.6 mph /  62.1 km/h 56.3 mph /  90.6 km/h 88 % 0.0 in /  0 mm 18 W/m2
10:47 12.9 °F /  -10.6 °C 10.9 °F /  -11.7 °C 991.8 in /  33582.3 hPa WSW 41.8 mph /  67.3 km/h 85.3 mph /  137.3 km/h 88 % 0.0 in /  0 mm 40 W/m2
10:52 12.8 °F /  -10.7 °C 10.7 °F /  -11.8 °C 992.1 in /  33592.5 hPa WSW 48.3 mph /  77.7 km/h 86.9 mph /  139.8 km/h 87 % 0.0 in /  0 mm 56 W/m2
10:57 12.8 °F /  -10.7 °C 10.5 °F /  -11.9 °C 992.1 in /  33592.5 hPa WSW 53.1 mph /  85.5 km/h 90.1 mph /  145 km/h 86 % 0.0 in /  0 mm 28 W/m2
11:02 11.5 °F /  -11.4 °C 8.7 °F /  -12.9 °C 992.4 in /  33602.7 hPa West 43.4 mph /  69.8 km/h 54.7 mph /  88 km/h 83 % 0.0 in /  0 mm 9 W/m2
11:07 10.0 °F /  -12.2 °C 7.8 °F /  -13.4 °C 992.4 in /  33602.7 hPa WSW 32.2 mph /  51.8 km/h 57.9 mph /  93.2 km/h 86 % 0.0 in /  0 mm 56 W/m2
11:12 9.8 °F /  -12.3 °C 7.9 °F /  -13.4 °C 992.1 in /  33592.5 hPa West 33.8 mph /  54.4 km/h 69.2 mph /  111.4 km/h 88 % 0.0 in /  0 mm 79 W/m2
11:17 9.7 °F /  -12.4 °C 8.0 °F /  -13.3 °C 992.8 in /  33616.2 hPa West 40.2 mph /  64.7 km/h 57.9 mph /  93.2 km/h 89 % 0.0 in /  0 mm 58 W/m2
11:22 9.6 °F /  -12.4 °C 7.9 °F /  -13.4 °C 992.8 in /  33616.2 hPa West 37.0 mph /  59.5 km/h 49.9 mph /  80.3 km/h 89 % 0.0 in /  0 mm 70 W/m2
11:27 9.6 °F /  -12.4 °C 7.9 °F /  -13.4 °C 992.8 in /  33616.2 hPa West 30.6 mph /  49.2 km/h 41.8 mph /  67.3 km/h 89 % 0.0 in /  0 mm 49 W/m2
11:32 9.5 °F /  -12.5 °C 7.8 °F /  -13.4 °C 992.4 in /  33602.7 hPa West 27.4 mph /  44.1 km/h 57.9 mph /  93.2 km/h 89 % 0.0 in /  0 mm 86 W/m2
11:37 9.4 °F /  -12.6 °C 7.8 °F /  -13.4 °C 992.8 in /  33616.2 hPa West 29.0 mph /  46.7 km/h 54.7 mph /  88 km/h 90 % 0.0 in /  0 mm 81 W/m2
11:42 9.2 °F /  -12.7 °C 7.7 °F /  -13.5 °C 992.4 in /  33602.7 hPa WSW 30.6 mph /  49.2 km/h 54.7 mph /  88 km/h 90 % 0.0 in /  0 mm 77 W/m2
11:47 9.2 °F /  -12.7 °C 7.7 °F /  -13.5 °C 992.4 in /  33602.7 hPa WSW 32.2 mph /  51.8 km/h 53.1 mph /  85.5 km/h 90 % 0.0 in /  0 mm 62 W/m2
11:52 9.1 °F /  -12.7 °C 7.6 °F /  -13.6 °C 992.1 in /  33592.5 hPa WSW 32.2 mph /  51.8 km/h 48.3 mph /  77.7 km/h 90 % 0.0 in /  0 mm 40 W/m2
11:57 9.1 °F /  -12.7 °C 7.6 °F /  -13.6 °C 992.1 in /  33592.5 hPa WSW 30.6 mph /  49.2 km/h 41.8 mph /  67.3 km/h 90 % 0.0 in /  0 mm 47 W/m2
12:02 9.1 °F /  -12.7 °C 7.4 °F /  -13.7 °C 992.1 in /  33592.5 hPa WSW 30.6 mph /  49.2 km/h 45.1 mph /  72.6 km/h 89 % 0.0 in /  0 mm 33 W/m2
12:07 9.1 °F /  -12.7 °C 7.4 °F /  -13.7 °C 991.8 in /  33582.3 hPa West 30.6 mph /  49.2 km/h 40.2 mph /  64.7 km/h 89 % 0.0 in /  0 mm 14 W/m2
12:12 9.1 °F /  -12.7 °C 7.4 °F /  -13.7 °C 992.1 in /  33592.5 hPa WSW 29.0 mph /  46.7 km/h 43.4 mph /  69.8 km/h 89 % 0.0 in /  0 mm 12 W/m2
12:17 8.9 °F /  -12.8 °C 7.3 °F /  -13.7 °C 992.1 in /  33592.5 hPa West 29.0 mph /  46.7 km/h 38.6 mph /  62.1 km/h 90 % 0.0 in /  0 mm 14 W/m2
12:22 8.8 °F /  -12.9 °C 7.2 °F /  -13.8 °C 992.4 in /  33602.7 hPa WSW 27.4 mph /  44.1 km/h 40.2 mph /  64.7 km/h 90 % 0.0 in /  0 mm 18 W/m2
12:27 8.8 °F /  -12.9 °C 7.2 °F /  -13.8 °C 992.1 in /  33592.5 hPa WSW 29.0 mph /  46.7 km/h 43.4 mph /  69.8 km/h 90 % 0.0 in /  0 mm 19 W/m2
12:32 8.7 °F /  -12.9 °C 7.2 °F /  -13.8 °C 992.1 in /  33592.5 hPa WSW 29.0 mph /  46.7 km/h 41.8 mph /  67.3 km/h 90 % 0.0 in /  0 mm 30 W/m2
12:37 8.7 °F /  -12.9 °C 7.2 °F /  -13.8 °C 991.8 in /  33582.3 hPa WSW 25.7 mph /  41.4 km/h 32.2 mph /  51.8 km/h 90 % 0.0 in /  0 mm 28 W/m2
12:42 8.8 °F /  -12.9 °C 7.2 °F /  -13.8 °C 991.8 in /  33582.3 hPa SW 22.5 mph /  36.2 km/h 37.0 mph /  59.5 km/h 90 % 0.0 in /  0 mm 40 W/m2
12:47 8.9 °F /  -12.8 °C 7.3 °F /  -13.7 °C 992.1 in /  33592.5 hPa SSW 22.5 mph /  36.2 km/h 37.0 mph /  59.5 km/h 90 % 0.0 in /  0 mm 47 W/m2
12:52 9.2 °F /  -12.7 °C 7.5 °F /  -13.6 °C 991.4 in /  33568.8 hPa SW 22.5 mph /  36.2 km/h 37.0 mph /  59.5 km/h 89 % 0.0 in /  0 mm 54 W/m2
12:57 9.5 °F /  -12.5 °C 7.6 °F /  -13.6 °C 991.4 in /  33568.8 hPa SSW 24.1 mph /  38.8 km/h 35.4 mph /  57 km/h 88 % 0.0 in /  0 mm 67 W/m2
13:02 9.6 °F /  -12.4 °C 7.6 °F /  -13.6 °C 991.4 in /  33568.8 hPa SSW 17.7 mph /  28.5 km/h 35.4 mph /  57 km/h 87 % 0.0 in /  0 mm 83 W/m2
13:07 9.7 °F /  -12.4 °C 7.4 °F /  -13.7 °C 991.4 in /  33568.8 hPa SSW 14.5 mph /  23.3 km/h 22.5 mph /  36.2 km/h 86 % 0.0 in /  0 mm 144 W/m2
13:12 9.9 °F /  -12.3 °C 7.7 °F /  -13.5 °C 991.8 in /  33582.3 hPa SW 14.5 mph /  23.3 km/h 35.4 mph /  57 km/h 86 % 0.0 in /  0 mm 139 W/m2
13:17 10.2 °F /  -12.1 °C 7.8 °F /  -13.4 °C 991.8 in /  33582.3 hPa SW 17.7 mph /  28.5 km/h 32.2 mph /  51.8 km/h 85 % 0.0 in /  0 mm 171 W/m2
13:22 10.5 °F /  -11.9 °C 7.7 °F /  -13.5 °C 991.8 in /  33582.3 hPa SSW 22.5 mph /  36.2 km/h 46.7 mph /  75.2 km/h 83 % 0.0 in /  0 mm 220 W/m2
13:27 10.7 °F /  -11.8 °C 7.8 °F /  -13.4 °C 991.8 in /  33582.3 hPa SW 24.1 mph /  38.8 km/h 43.4 mph /  69.8 km/h 82 % 0.0 in /  0 mm 264 W/m2
13:32 11.0 °F /  -11.7 °C 8.2 °F /  -13.2 °C 991.8 in /  33582.3 hPa SW 25.7 mph /  41.4 km/h 35.4 mph /  57 km/h 83 % 0.0 in /  0 mm 283 W/m2
13:37 11.1 °F /  -11.6 °C 8.2 °F /  -13.2 °C 991.8 in /  33582.3 hPa SW 20.9 mph /  33.6 km/h 41.8 mph /  67.3 km/h 82 % 0.0 in /  0 mm 193 W/m2
13:42 11.1 °F /  -11.6 °C 8.2 °F /  -13.2 °C 991.4 in /  33568.8 hPa SW 17.7 mph /  28.5 km/h 38.6 mph /  62.1 km/h 82 % 0.0 in /  0 mm 200 W/m2
13:47 10.9 °F /  -11.7 °C 7.9 °F /  -13.4 °C 991.4 in /  33568.8 hPa SW 20.9 mph /  33.6 km/h 46.7 mph /  75.2 km/h 82 % 0.0 in /  0 mm 172 W/m2
13:52 10.9 °F /  -11.7 °C 7.9 °F /  -13.4 °C 991.4 in /  33568.8 hPa SW 24.1 mph /  38.8 km/h 46.7 mph /  75.2 km/h 82 % 0.0 in /  0 mm 146 W/m2
13:57 10.8 °F /  -11.8 °C 8.0 °F /  -13.3 °C 991.4 in /  33568.8 hPa SW 24.1 mph /  38.8 km/h 30.6 mph /  49.2 km/h 83 % 0.0 in /  0 mm 171 W/m2
14:02 10.7 °F /  -11.8 °C 8.1 °F /  -13.3 °C 991.4 in /  33568.8 hPa SW 22.5 mph /  36.2 km/h 22.5 mph /  36.2 km/h 84 % 0.0 in /  0 mm 151 W/m2
14:07 10.6 °F /  -11.9 °C 8.2 °F /  -13.2 °C 991.4 in /  33568.8 hPa South 14.5 mph /  23.3 km/h 30.6 mph /  49.2 km/h 85 % 0.0 in /  0 mm 128 W/m2
14:12 10.4 °F /  -12 °C 8.2 °F /  -13.2 °C 991.8 in /  33582.3 hPa SW 14.5 mph /  23.3 km/h 40.2 mph /  64.7 km/h 86 % 0.0 in /  0 mm 77 W/m2
14:17 10.4 °F /  -12 °C 8.2 °F /  -13.2 °C 991.8 in /  33582.3 hPa SW 16.1 mph /  25.9 km/h 32.2 mph /  51.8 km/h 86 % 0.0 in /  0 mm 37 W/m2
14:22 10.3 °F /  -12.1 °C 8.2 °F /  -13.2 °C 991.8 in /  33582.3 hPa SW 19.3 mph /  31.1 km/h 53.1 mph /  85.5 km/h 87 % 0.0 in /  0 mm 51 W/m2
14:27 10.2 °F /  -12.1 °C 8.1 °F /  -13.3 °C 991.8 in /  33582.3 hPa WSW 25.7 mph /  41.4 km/h 40.2 mph /  64.7 km/h 87 % 0.0 in /  0 mm 76 W/m2
14:32 10.2 °F /  -12.1 °C 8.1 °F /  -13.3 °C 991.4 in /  33568.8 hPa WSW 27.4 mph /  44.1 km/h 40.2 mph /  64.7 km/h 87 % 0.0 in /  0 mm 123 W/m2
14:37 10.3 °F /  -12.1 °C 8.2 °F /  -13.2 °C 991.4 in /  33568.8 hPa WSW 25.7 mph /  41.4 km/h 41.8 mph /  67.3 km/h 87 % 0.0 in /  0 mm 227 W/m2
14:42 10.9 °F /  -11.7 °C 9.2 °F /  -12.7 °C 991.4 in /  33568.8 hPa WSW 24.1 mph /  38.8 km/h 41.8 mph /  67.3 km/h 89 % 0.0 in /  0 mm 761 W/m2
14:47 11.3 °F /  -11.5 °C 9.4 °F /  -12.6 °C 991.4 in /  33568.8 hPa WSW 22.5 mph /  36.2 km/h 33.8 mph /  54.4 km/h 88 % 0.0 in /  0 mm 515 W/m2
14:52 11.4 °F /  -11.4 °C 9.3 °F /  -12.6 °C 991.4 in /  33568.8 hPa WSW 22.5 mph /  36.2 km/h 32.2 mph /  51.8 km/h 87 % 0.0 in /  0 mm 262 W/m2
14:57 11.5 °F /  -11.4 °C 9.2 °F /  -12.7 °C 991.4 in /  33568.8 hPa WSW 22.5 mph /  36.2 km/h 33.8 mph /  54.4 km/h 86 % 0.0 in /  0 mm 243 W/m2
15:02 11.6 °F /  -11.3 °C 8.8 °F /  -12.9 °C 991.1 in /  33558.6 hPa West 20.9 mph /  33.6 km/h 56.3 mph /  90.6 km/h 83 % 0.0 in /  0 mm 380 W/m2
16:27 13.3 °F /  -10.4 °C 8.6 °F /  -13 °C 991.1 in /  33558.6 hPa WSW 33.8 mph /  54.4 km/h 45.1 mph /  72.6 km/h 73 % 0.0 in /  0 mm 403 W/m2
16:32 13.1 °F /  -10.5 °C 8.2 °F /  -13.2 °C 991.1 in /  33558.6 hPa WSW 30.6 mph /  49.2 km/h 43.4 mph /  69.8 km/h 72 % 0.0 in /  0 mm 79 W/m2
16:37 12.7 °F /  -10.7 °C 8.0 °F /  -13.3 °C 991.1 in /  33558.6 hPa WSW 25.7 mph /  41.4 km/h 69.2 mph /  111.4 km/h 73 % 0.0 in /  0 mm 172 W/m2
16:42 12.6 °F /  -10.8 °C 8.1 °F /  -13.3 °C 991.4 in /  33568.8 hPa WSW 32.2 mph /  51.8 km/h 53.1 mph /  85.5 km/h 74 % 0.0 in /  0 mm 163 W/m2
16:47 12.4 °F /  -10.9 °C 7.9 °F /  -13.4 °C 991.4 in /  33568.8 hPa West 33.8 mph /  54.4 km/h 59.5 mph /  95.8 km/h 74 % 0.0 in /  0 mm 118 W/m2
16:52 12.3 °F /  -10.9 °C 8.2 °F /  -13.2 °C 991.1 in /  33558.6 hPa West 35.4 mph /  57 km/h 43.4 mph /  69.8 km/h 76 % 0.0 in /  0 mm 118 W/m2
16:57 12.3 °F /  -10.9 °C 8.2 °F /  -13.2 °C 991.1 in /  33558.6 hPa West 33.8 mph /  54.4 km/h 46.7 mph /  75.2 km/h 76 % 0.0 in /  0 mm 56 W/m2
17:02 12.3 °F /  -10.9 °C 8.2 °F /  -13.2 °C 991.1 in /  33558.6 hPa WSW 30.6 mph /  49.2 km/h 45.1 mph /  72.6 km/h 76 % 0.0 in /  0 mm 70 W/m2
17:07 12.3 °F /  -10.9 °C 8.4 °F /  -13.1 °C 991.4 in /  33568.8 hPa WSW 32.2 mph /  51.8 km/h 61.1 mph /  98.3 km/h 77 % 0.0 in /  0 mm 97 W/m2
17:12 12.2 °F /  -11 °C 8.3 °F /  -13.2 °C 991.4 in /  33568.8 hPa West 33.8 mph /  54.4 km/h 51.5 mph /  82.9 km/h 77 % 0.0 in /  0 mm 81 W/m2
17:17 12.1 °F /  -11.1 °C 8.4 °F /  -13.1 °C 991.4 in /  33568.8 hPa West 33.8 mph /  54.4 km/h 53.1 mph /  85.5 km/h 78 % 0.0 in /  0 mm 93 W/m2
17:22 12.0 °F /  -11.1 °C 8.4 °F /  -13.1 °C 991.1 in /  33558.6 hPa West 30.6 mph /  49.2 km/h 35.4 mph /  57 km/h 79 % 0.0 in /  0 mm 139 W/m2
17:27 11.9 °F /  -11.2 °C 8.6 °F /  -13 °C 991.1 in /  33558.6 hPa West 22.5 mph /  36.2 km/h 30.6 mph /  49.2 km/h 80 % 0.0 in /  0 mm 81 W/m2
18:27 12.8 °F /  -10.7 °C -73.3 °F /  -58.5 °C -3386.0 in /  -114650 hPa WSW 24.1 mph /  38.8 km/h 54.7 mph /  88 km/h 76 % 0.0 in /  0 mm 97 W/m2
18:32 12.7 °F /  -10.7 °C 8.6 °F /  -13 °C 991.1 in /  33558.6 hPa WSW 25.7 mph /  41.4 km/h 33.8 mph /  54.4 km/h 76 % 0.0 in /  0 mm 49 W/m2
18:47 12.2 °F /  -11 °C -73.3 °F /  -58.5 °C -3386.0 in /  -114650 hPa West 16.1 mph /  25.9 km/h 35.4 mph /  57 km/h 76 % 0.0 in /  0 mm 54 W/m2
18:52 12.2 °F /  -11 °C -73.3 °F /  -58.5 °C -3386.0 in /  -114650 hPa WSW 11.3 mph /  18.2 km/h 33.8 mph /  54.4 km/h 76 % 0.0 in /  0 mm 51 W/m2
18:57 12.2 °F /  -11 °C -73.3 °F /  -58.5 °C -3386.0 in /  -114650 hPa WSW 14.5 mph /  23.3 km/h 32.2 mph /  51.8 km/h 76 % 0.0 in /  0 mm 44 W/m2
19:02 12.2 °F /  -11 °C -73.3 °F /  -58.5 °C -3386.0 in /  -114650 hPa West 25.7 mph /  41.4 km/h 35.4 mph /  57 km/h 75 % 0.0 in /  0 mm 26 W/m2
19:57 11.6 °F /  -11.3 °C 7.3 °F /  -13.7 °C 991.8 in /  33582.3 hPa WSW 22.5 mph /  36.2 km/h 43.4 mph /  69.8 km/h 75 % 0.0 in /  0 mm 0 W/m2
20:07 11.5 °F /  -11.4 °C 7.6 °F /  -13.6 °C 991.4 in /  33568.8 hPa WSW 27.4 mph /  44.1 km/h 37.0 mph /  59.5 km/h 77 % 0.0 in /  0 mm 0 W/m2
20:27 11.1 °F /  -11.6 °C 7.2 °F /  -13.8 °C 991.4 in /  33568.8 hPa WSW 22.5 mph /  36.2 km/h 30.6 mph /  49.2 km/h 77 % 0.0 in /  0 mm 0 W/m2
20:32 11.0 °F /  -11.7 °C 7.3 °F /  -13.7 °C 991.4 in /  33568.8 hPa WSW 22.5 mph /  36.2 km/h 37.0 mph /  59.5 km/h 78 % 0.0 in /  0 mm 0 W/m2
20:37 11.0 °F /  -11.7 °C 7.3 °F /  -13.7 °C 991.4 in /  33568.8 hPa SW 24.1 mph /  38.8 km/h 32.2 mph /  51.8 km/h 78 % 0.0 in /  0 mm 0 W/m2
20:42 10.9 °F /  -11.7 °C 7.2 °F /  -13.8 °C 991.4 in /  33568.8 hPa SW 20.9 mph /  33.6 km/h 25.7 mph /  41.4 km/h 78 % 0.0 in /  0 mm 0 W/m2
21:12 10.7 °F /  -11.8 °C 7.2 °F /  -13.8 °C 991.1 in /  33558.6 hPa WSW 17.7 mph /  28.5 km/h 38.6 mph /  62.1 km/h 79 % 0.0 in /  0 mm 0 W/m2
21:27 10.6 °F /  -11.9 °C -73.3 °F /  -58.5 °C -3386.0 in /  -114650 hPa SW 14.5 mph /  23.3 km/h 43.4 mph /  69.8 km/h 79 % 0.0 in /  0 mm 0 W/m2
22:07 10.0 °F /  -12.2 °C 6.9 °F /  -13.9 °C 991.1 in /  33558.6 hPa WSW 24.1 mph /  38.8 km/h 35.4 mph /  57 km/h 81 % 0.0 in /  0 mm 0 W/m2
22:42 10.3 °F /  -12.1 °C 6.8 °F /  -14 °C 991.1 in /  33558.6 hPa WSW 30.6 mph /  49.2 km/h 51.5 mph /  82.9 km/h 79 % 0.0 in /  0 mm 0 W/m2
23:07 10.0 °F /  -12.2 °C -73.3 °F /  -58.5 °C -3386.0 in /  -114650 hPa West 46.7 mph /  75.2 km/h 53.1 mph /  85.5 km/h 80 % 0.0 in /  0 mm 0 W/m2
23:12 9.8 °F /  -12.3 °C 6.5 °F /  -14.2 °C 991.1 in /  33558.6 hPa WSW 32.2 mph /  51.8 km/h 54.7 mph /  88 km/h 80 % 0.0 in /  0 mm 0 W/m2
23:17 9.7 °F /  -12.4 °C 6.4 °F /  -14.2 °C 991.1 in /  33558.6 hPa WSW 37.0 mph /  59.5 km/h 51.5 mph /  82.9 km/h 80 % 0.0 in /  0 mm 0 W/m2
23:27 9.6 °F /  -12.4 °C 6.3 °F /  -14.3 °C 991.1 in /  33558.6 hPa WSW 30.6 mph /  49.2 km/h 40.2 mph /  64.7 km/h 80 % 0.0 in /  0 mm 0 W/m2
23:47 9.9 °F /  -12.3 °C 6.8 °F /  -14 °C 991.4 in /  33568.8 hPa WSW 27.4 mph /  44.1 km/h 61.1 mph /  98.3 km/h 81 % 0.0 in /  0 mm 0 W/m2
Meteocoruña
Agradecimientos a Weather Underground - 3 mb